sensor_id;sensor_type;location;lat;lon;timestamp;temperature;humidity
21590;DHT22;10957;50.968;6.828;2023-08-08T00:02:18;13.40;99.90
21590;DHT22;10957;50.968;6.828;2023-08-08T00:07:19;13.20;99.90
21590;DHT22;10957;50.968;6.828;2023-08-08T00:12:20;13.30;99.90
21590;DHT22;10957;50.968;6.828;2023-08-08T00:17:21;13.20;99.90
21590;DHT22;10957;50.968;6.828;2023-08-08T00:22:22;13.20;99.90
21590;DHT22;10957;50.968;6.828;2023-08-08T00:27:24;13.10;99.90
21590;DHT22;10957;50.968;6.828;2023-08-08T00:32:26;12.90;99.90
21590;DHT22;10957;50.968;6.828;2023-08-08T00:37:27;12.90;99.90
21590;DHT22;10957;50.968;6.828;2023-08-08T00:42:28;13.00;99.90
21590;DHT22;10957;50.968;6.828;2023-08-08T00:47:34;13.00;99.90
21590;DHT22;10957;50.968;6.828;2023-08-08T00:52:37;12.80;99.90
21590;DHT22;10957;50.968;6.828;2023-08-08T00:57:40;12.90;99.90
21590;DHT22;10957;50.968;6.828;2023-08-08T01:02:42;12.90;99.90
21590;DHT22;10957;50.968;6.828;2023-08-08T01:08:06;12.80;99.90
21590;DHT22;10957;50.968;6.828;2023-08-08T01:13:20;12.70;99.90
21590;DHT22;10957;50.968;6.828;2023-08-08T01:18:22;12.60;99.90
21590;DHT22;10957;50.968;6.828;2023-08-08T01:28:35;12.70;99.90
21590;DHT22;10957;50.968;6.828;2023-08-08T01:33:37;12.50;99.90
21590;DHT22;10957;50.968;6.828;2023-08-08T01:38:41;12.90;99.90
21590;DHT22;10957;50.968;6.828;2023-08-08T01:43:43;12.80;99.90
21590;DHT22;10957;50.968;6.828;2023-08-08T01:48:45;13.10;99.90
21590;DHT22;10957;50.968;6.828;2023-08-08T01:53:48;12.80;99.90
21590;DHT22;10957;50.968;6.828;2023-08-08T01:58:49;12.90;99.90
21590;DHT22;10957;50.968;6.828;2023-08-08T02:03:50;12.80;99.90
21590;DHT22;10957;50.968;6.828;2023-08-08T02:08:51;13.00;99.90
21590;DHT22;10957;50.968;6.828;2023-08-08T02:13:53;13.00;99.90
21590;DHT22;10957;50.968;6.828;2023-08-08T02:18:54;13.00;99.90
21590;DHT22;10957;50.968;6.828;2023-08-08T02:23:55;12.80;99.90
21590;DHT22;10957;50.968;6.828;2023-08-08T02:28:57;13.10;99.90
21590;DHT22;10957;50.968;6.828;2023-08-08T02:33:58;12.90;99.90
21590;DHT22;10957;50.968;6.828;2023-08-08T02:38:59;12.70;99.90
21590;DHT22;10957;50.968;6.828;2023-08-08T02:44:04;12.90;99.90
21590;DHT22;10957;50.968;6.828;2023-08-08T02:49:06;12.90;99.90
21590;DHT22;10957;50.968;6.828;2023-08-08T02:54:07;12.90;99.90
21590;DHT22;10957;50.968;6.828;2023-08-08T02:59:13;12.90;99.90
21590;DHT22;10957;50.968;6.828;2023-08-08T03:04:14;12.70;99.90
21590;DHT22;10957;50.968;6.828;2023-08-08T03:09:16;12.60;99.90
21590;DHT22;10957;50.968;6.828;2023-08-08T03:14:18;12.50;99.90
21590;DHT22;10957;50.968;6.828;2023-08-08T03:19:20;12.60;99.90
21590;DHT22;10957;50.968;6.828;2023-08-08T03:24:22;12.50;99.90
21590;DHT22;10957;50.968;6.828;2023-08-08T03:29:23;12.90;99.90
21590;DHT22;10957;50.968;6.828;2023-08-08T03:34:25;12.90;99.90
21590;DHT22;10957;50.968;6.828;2023-08-08T03:39:26;12.50;99.90
21590;DHT22;10957;50.968;6.828;2023-08-08T03:44:27;12.80;99.90
21590;DHT22;10957;50.968;6.828;2023-08-08T03:49:29;13.10;99.90
21590;DHT22;10957;50.968;6.828;2023-08-08T03:54:30;12.80;99.90
21590;DHT22;10957;50.968;6.828;2023-08-08T03:59:31;12.70;99.90
21590;DHT22;10957;50.968;6.828;2023-08-08T04:04:33;13.10;99.90
21590;DHT22;10957;50.968;6.828;2023-08-08T04:09:34;12.90;99.90
21590;DHT22;10957;50.968;6.828;2023-08-08T04:14:35;12.70;99.90
21590;DHT22;10957;50.968;6.828;2023-08-08T04:19:36;12.90;99.90
21590;DHT22;10957;50.968;6.828;2023-08-08T04:24:37;12.60;99.90
21590;DHT22;10957;50.968;6.828;2023-08-08T04:29:39;13.00;99.90
21590;DHT22;10957;50.968;6.828;2023-08-08T04:34:41;12.90;99.90
21590;DHT22;10957;50.968;6.828;2023-08-08T04:39:42;13.20;99.90
21590;DHT22;10957;50.968;6.828;2023-08-08T04:44:44;13.10;99.90
21590;DHT22;10957;50.968;6.828;2023-08-08T04:49:45;13.00;99.90
21590;DHT22;10957;50.968;6.828;2023-08-08T04:54:47;12.70;99.90
21590;DHT22;10957;50.968;6.828;2023-08-08T04:59:48;12.70;99.90
21590;DHT22;10957;50.968;6.828;2023-08-08T05:04:49;13.20;99.90
21590;DHT22;10957;50.968;6.828;2023-08-08T05:09:51;13.00;99.90
21590;DHT22;10957;50.968;6.828;2023-08-08T05:14:52;13.00;99.90
21590;DHT22;10957;50.968;6.828;2023-08-08T05:19:54;13.50;99.90
21590;DHT22;10957;50.968;6.828;2023-08-08T05:24:55;13.50;99.90
21590;DHT22;10957;50.968;6.828;2023-08-08T05:29:56;13.50;99.90
21590;DHT22;10957;50.968;6.828;2023-08-08T05:34:57;13.90;99.90
21590;DHT22;10957;50.968;6.828;2023-08-08T05:39:59;13.60;99.90
21590;DHT22;10957;50.968;6.828;2023-08-08T05:45:00;13.90;99.90
21590;DHT22;10957;50.968;6.828;2023-08-08T05:50:01;13.70;99.90
21590;DHT22;10957;50.968;6.828;2023-08-08T05:55:03;14.10;99.90
21590;DHT22;10957;50.968;6.828;2023-08-08T06:00:05;14.40;99.90
21590;DHT22;10957;50.968;6.828;2023-08-08T06:05:16;14.30;99.90
21590;DHT22;10957;50.968;6.828;2023-08-08T06:10:17;14.10;99.90
21590;DHT22;10957;50.968;6.828;2023-08-08T06:15:18;14.40;99.90
21590;DHT22;10957;50.968;6.828;2023-08-08T06:20:20;14.70;99.90
21590;DHT22;10957;50.968;6.828;2023-08-08T06:25:21;14.90;99.90
21590;DHT22;10957;50.968;6.828;2023-08-08T06:30:22;14.90;99.90
21590;DHT22;10957;50.968;6.828;2023-08-08T06:35:23;15.40;38.50
21590;DHT22;10957;50.968;6.828;2023-08-08T06:40:24;15.80;7.30
21590;DHT22;10957;50.968;6.828;2023-08-08T06:45:26;16.10;1.00
21590;DHT22;10957;50.968;6.828;2023-08-08T06:50:27;16.20;1.00
21590;DHT22;10957;50.968;6.828;2023-08-08T06:55:28;16.20;1.00
21590;DHT22;10957;50.968;6.828;2023-08-08T07:00:30;16.70;1.00
21590;DHT22;10957;50.968;6.828;2023-08-08T07:05:31;16.80;1.00
21590;DHT22;10957;50.968;6.828;2023-08-08T07:10:32;16.80;1.00
21590;DHT22;10957;50.968;6.828;2023-08-08T07:15:33;17.20;1.00
21590;DHT22;10957;50.968;6.828;2023-08-08T07:20:35;16.90;1.00
21590;DHT22;10957;50.968;6.828;2023-08-08T07:25:36;16.80;1.00
21590;DHT22;10957;50.968;6.828;2023-08-08T07:30:37;16.90;1.00
21590;DHT22;10957;50.968;6.828;2023-08-08T07:35:39;16.90;1.00
21590;DHT22;10957;50.968;6.828;2023-08-08T07:40:40;17.10;1.00
21590;DHT22;10957;50.968;6.828;2023-08-08T07:45:42;17.40;1.00
21590;DHT22;10957;50.968;6.828;2023-08-08T07:50:43;17.20;1.00
21590;DHT22;10957;50.968;6.828;2023-08-08T07:55:44;17.80;1.00
21590;DHT22;10957;50.968;6.828;2023-08-08T08:00:46;18.10;1.00
21590;DHT22;10957;50.968;6.828;2023-08-08T08:05:47;18.30;1.00
21590;DHT22;10957;50.968;6.828;2023-08-08T08:10:48;18.00;1.00
21590;DHT22;10957;50.968;6.828;2023-08-08T08:15:51;18.40;1.00
21590;DHT22;10957;50.968;6.828;2023-08-08T08:20:53;17.50;1.00
21590;DHT22;10957;50.968;6.828;2023-08-08T08:25:54;17.10;1.00
21590;DHT22;10957;50.968;6.828;2023-08-08T08:30:56;16.80;1.00
21590;DHT22;10957;50.968;6.828;2023-08-08T08:35:58;16.80;1.00
21590;DHT22;10957;50.968;6.828;2023-08-08T08:40:59;16.60;1.00
21590;DHT22;10957;50.968;6.828;2023-08-08T08:46:02;16.80;1.00
21590;DHT22;10957;50.968;6.828;2023-08-08T08:51:04;16.70;1.00
21590;DHT22;10957;50.968;6.828;2023-08-08T08:56:05;16.70;1.00
21590;DHT22;10957;50.968;6.828;2023-08-08T09:01:08;17.00;1.00
21590;DHT22;10957;50.968;6.828;2023-08-08T09:06:10;17.10;1.00
21590;DHT22;10957;50.968;6.828;2023-08-08T09:11:12;17.00;1.00
21590;DHT22;10957;50.968;6.828;2023-08-08T09:16:14;17.40;1.00
21590;DHT22;10957;50.968;6.828;2023-08-08T09:21:15;17.50;1.00
21590;DHT22;10957;50.968;6.828;2023-08-08T09:26:16;17.20;1.00
21590;DHT22;10957;50.968;6.828;2023-08-08T09:31:18;17.30;1.00
21590;DHT22;10957;50.968;6.828;2023-08-08T09:36:19;17.60;1.00
21590;DHT22;10957;50.968;6.828;2023-08-08T09:41:21;17.50;1.00
21590;DHT22;10957;50.968;6.828;2023-08-08T09:46:23;17.50;1.00
21590;DHT22;10957;50.968;6.828;2023-08-08T09:51:25;18.10;1.00
21590;DHT22;10957;50.968;6.828;2023-08-08T09:56:28;18.30;1.00
21590;DHT22;10957;50.968;6.828;2023-08-08T10:01:29;17.90;1.00
21590;DHT22;10957;50.968;6.828;2023-08-08T10:06:32;17.60;1.00
21590;DHT22;10957;50.968;6.828;2023-08-08T10:11:34;17.50;1.00
21590;DHT22;10957;50.968;6.828;2023-08-08T10:16:37;18.00;1.00
21590;DHT22;10957;50.968;6.828;2023-08-08T10:21:43;18.40;99.90
21590;DHT22;10957;50.968;6.828;2023-08-08T10:26:58;18.30;1.00
21590;DHT22;10957;50.968;6.828;2023-08-08T10:32:05;18.30;99.90
21590;DHT22;10957;50.968;6.828;2023-08-08T10:37:11;18.80;99.90
21590;DHT22;10957;50.968;6.828;2023-08-08T10:42:18;18.50;99.90
21590;DHT22;10957;50.968;6.828;2023-08-08T10:47:31;18.20;99.90
21590;DHT22;10957;50.968;6.828;2023-08-08T10:52:33;18.10;99.90
21590;DHT22;10957;50.968;6.828;2023-08-08T10:57:38;17.80;99.90
21590;DHT22;10957;50.968;6.828;2023-08-08T11:02:40;17.90;99.90
21590;DHT22;10957;50.968;6.828;2023-08-08T11:07:42;18.10;99.90
21590;DHT22;10957;50.968;6.828;2023-08-08T11:13:04;18.00;99.90
21590;DHT22;10957;50.968;6.828;2023-08-08T11:18:06;18.00;99.90
21590;DHT22;10957;50.968;6.828;2023-08-08T11:23:07;18.20;99.90
21590;DHT22;10957;50.968;6.828;2023-08-08T11:28:12;18.20;99.90
21590;DHT22;10957;50.968;6.828;2023-08-08T11:33:14;18.10;99.90
21590;DHT22;10957;50.968;6.828;2023-08-08T11:38:16;18.30;99.90
21590;DHT22;10957;50.968;6.828;2023-08-08T11:43:18;18.20;99.90
21590;DHT22;10957;50.968;6.828;2023-08-08T11:48:21;18.00;99.90
21590;DHT22;10957;50.968;6.828;2023-08-08T11:53:23;18.00;99.90
21590;DHT22;10957;50.968;6.828;2023-08-08T11:58:24;17.80;99.90
21590;DHT22;10957;50.968;6.828;2023-08-08T12:03:26;17.90;99.90
21590;DHT22;10957;50.968;6.828;2023-08-08T12:08:30;18.00;99.90
21590;DHT22;10957;50.968;6.828;2023-08-08T12:13:32;18.20;99.90
21590;DHT22;10957;50.968;6.828;2023-08-08T12:18:37;18.40;99.90
21590;DHT22;10957;50.968;6.828;2023-08-08T12:23:39;18.40;99.90
21590;DHT22;10957;50.968;6.828;2023-08-08T12:28:40;18.40;99.90
21590;DHT22;10957;50.968;6.828;2023-08-08T12:33:42;18.60;99.90
21590;DHT22;10957;50.968;6.828;2023-08-08T12:38:43;18.20;99.90
21590;DHT22;10957;50.968;6.828;2023-08-08T12:43:47;18.00;99.90
21590;DHT22;10957;50.968;6.828;2023-08-08T12:48:48;17.90;99.90
21590;DHT22;10957;50.968;6.828;2023-08-08T12:53:52;17.30;99.90
21590;DHT22;10957;50.968;6.828;2023-08-08T12:58:53;16.90;1.00
21590;DHT22;10957;50.968;6.828;2023-08-08T13:03:54;16.70;1.00
21590;DHT22;10957;50.968;6.828;2023-08-08T13:08:55;16.70;1.00
21590;DHT22;10957;50.968;6.828;2023-08-08T13:13:57;16.80;1.00
21590;DHT22;10957;50.968;6.828;2023-08-08T13:18:58;16.90;1.00
21590;DHT22;10957;50.968;6.828;2023-08-08T13:23:59;17.60;1.00
21590;DHT22;10957;50.968;6.828;2023-08-08T13:29:01;17.80;1.00
21590;DHT22;10957;50.968;6.828;2023-08-08T13:34:02;18.10;99.90
21590;DHT22;10957;50.968;6.828;2023-08-08T13:39:03;18.30;99.90
21590;DHT22;10957;50.968;6.828;2023-08-08T13:44:06;18.30;99.90
21590;DHT22;10957;50.968;6.828;2023-08-08T13:49:07;18.30;99.90
21590;DHT22;10957;50.968;6.828;2023-08-08T13:54:09;18.00;99.90
21590;DHT22;10957;50.968;6.828;2023-08-08T13:59:11;17.90;99.90
21590;DHT22;10957;50.968;6.828;2023-08-08T14:04:12;18.00;99.90
21590;DHT22;10957;50.968;6.828;2023-08-08T14:09:13;18.10;99.90
21590;DHT22;10957;50.968;6.828;2023-08-08T14:14:15;18.20;99.90
21590;DHT22;10957;50.968;6.828;2023-08-08T14:19:16;18.30;99.90
21590;DHT22;10957;50.968;6.828;2023-08-08T14:24:18;18.50;99.90
21590;DHT22;10957;50.968;6.828;2023-08-08T14:29:19;18.60;99.90
21590;DHT22;10957;50.968;6.828;2023-08-08T14:34:31;18.90;99.90
21590;DHT22;10957;50.968;6.828;2023-08-08T14:39:33;19.10;99.90
21590;DHT22;10957;50.968;6.828;2023-08-08T14:44:34;19.40;99.90
21590;DHT22;10957;50.968;6.828;2023-08-08T14:49:36;19.40;99.90
21590;DHT22;10957;50.968;6.828;2023-08-08T14:54:37;19.80;99.90
21590;DHT22;10957;50.968;6.828;2023-08-08T14:59:38;20.00;99.90
21590;DHT22;10957;50.968;6.828;2023-08-08T15:04:39;19.40;99.90
21590;DHT22;10957;50.968;6.828;2023-08-08T15:09:41;19.30;99.90
21590;DHT22;10957;50.968;6.828;2023-08-08T15:14:42;19.60;99.90
21590;DHT22;10957;50.968;6.828;2023-08-08T15:19:43;19.40;99.90
21590;DHT22;10957;50.968;6.828;2023-08-08T15:24:44;19.60;99.90
21590;DHT22;10957;50.968;6.828;2023-08-08T15:29:46;20.00;99.90
21590;DHT22;10957;50.968;6.828;2023-08-08T15:34:47;19.50;99.90
21590;DHT22;10957;50.968;6.828;2023-08-08T15:39:48;19.40;99.90
21590;DHT22;10957;50.968;6.828;2023-08-08T15:44:50;19.80;99.90
21590;DHT22;10957;50.968;6.828;2023-08-08T15:49:52;20.30;99.90
21590;DHT22;10957;50.968;6.828;2023-08-08T15:54:54;19.90;99.90
21590;DHT22;10957;50.968;6.828;2023-08-08T15:59:56;19.70;99.90
21590;DHT22;10957;50.968;6.828;2023-08-08T16:04:57;19.90;99.90
21590;DHT22;10957;50.968;6.828;2023-08-08T16:09:59;19.70;99.90
21590;DHT22;10957;50.968;6.828;2023-08-08T16:15:00;19.90;99.90
21590;DHT22;10957;50.968;6.828;2023-08-08T16:20:02;19.80;99.90
21590;DHT22;10957;50.968;6.828;2023-08-08T16:25:03;19.40;99.90
21590;DHT22;10957;50.968;6.828;2023-08-08T16:30:05;19.10;99.90
21590;DHT22;10957;50.968;6.828;2023-08-08T16:35:07;19.10;99.90
21590;DHT22;10957;50.968;6.828;2023-08-08T16:40:09;18.90;99.90
21590;DHT22;10957;50.968;6.828;2023-08-08T16:45:10;19.00;99.90
21590;DHT22;10957;50.968;6.828;2023-08-08T16:50:12;18.90;99.90
21590;DHT22;10957;50.968;6.828;2023-08-08T16:55:13;18.80;99.90
21590;DHT22;10957;50.968;6.828;2023-08-08T17:00:16;18.60;99.90
21590;DHT22;10957;50.968;6.828;2023-08-08T17:05:18;18.50;99.90
21590;DHT22;10957;50.968;6.828;2023-08-08T17:10:19;18.50;99.90
21590;DHT22;10957;50.968;6.828;2023-08-08T17:15:20;18.50;99.90
21590;DHT22;10957;50.968;6.828;2023-08-08T17:20:21;18.60;99.90
21590;DHT22;10957;50.968;6.828;2023-08-08T17:25:23;18.50;99.90
21590;DHT22;10957;50.968;6.828;2023-08-08T17:30:25;18.50;99.90
21590;DHT22;10957;50.968;6.828;2023-08-08T17:35:27;18.70;99.90
21590;DHT22;10957;50.968;6.828;2023-08-08T17:40:31;18.50;99.90
21590;DHT22;10957;50.968;6.828;2023-08-08T17:45:33;18.60;99.90
21590;DHT22;10957;50.968;6.828;2023-08-08T17:50:34;18.50;99.90
21590;DHT22;10957;50.968;6.828;2023-08-08T17:55:36;18.40;99.90
21590;DHT22;10957;50.968;6.828;2023-08-08T18:00:39;18.40;99.90
21590;DHT22;10957;50.968;6.828;2023-08-08T18:05:40;18.20;99.90
21590;DHT22;10957;50.968;6.828;2023-08-08T18:10:42;18.10;99.90
21590;DHT22;10957;50.968;6.828;2023-08-08T18:15:43;18.10;99.90
21590;DHT22;10957;50.968;6.828;2023-08-08T18:20:44;18.00;99.90
21590;DHT22;10957;50.968;6.828;2023-08-08T18:25:46;17.90;99.90
21590;DHT22;10957;50.968;6.828;2023-08-08T18:30:47;17.80;99.90
21590;DHT22;10957;50.968;6.828;2023-08-08T18:35:48;17.80;99.90
21590;DHT22;10957;50.968;6.828;2023-08-08T18:40:50;17.70;99.90
21590;DHT22;10957;50.968;6.828;2023-08-08T18:45:52;17.60;99.90
21590;DHT22;10957;50.968;6.828;2023-08-08T18:50:53;17.60;99.90
21590;DHT22;10957;50.968;6.828;2023-08-08T18:55:54;17.50;99.90
21590;DHT22;10957;50.968;6.828;2023-08-08T19:00:56;17.40;99.90
21590;DHT22;10957;50.968;6.828;2023-08-08T19:05:57;17.30;99.90
21590;DHT22;10957;50.968;6.828;2023-08-08T19:10:58;17.30;99.90
21590;DHT22;10957;50.968;6.828;2023-08-08T19:16:00;17.20;99.90
21590;DHT22;10957;50.968;6.828;2023-08-08T19:21:01;17.20;99.90
21590;DHT22;10957;50.968;6.828;2023-08-08T19:26:03;17.10;99.90
21590;DHT22;10957;50.968;6.828;2023-08-08T19:31:04;17.10;99.90
21590;DHT22;10957;50.968;6.828;2023-08-08T19:36:05;17.00;99.90
21590;DHT22;10957;50.968;6.828;2023-08-08T19:46:28;16.70;1.00
21590;DHT22;10957;50.968;6.828;2023-08-08T19:51:29;16.50;1.00
21590;DHT22;10957;50.968;6.828;2023-08-08T19:56:30;16.20;1.00
21590;DHT22;10957;50.968;6.828;2023-08-08T20:01:32;16.00;1.00
21590;DHT22;10957;50.968;6.828;2023-08-08T20:06:33;15.80;99.90
21590;DHT22;10957;50.968;6.828;2023-08-08T20:11:35;15.70;99.90
21590;DHT22;10957;50.968;6.828;2023-08-08T20:16:38;15.70;99.90
21590;DHT22;10957;50.968;6.828;2023-08-08T20:21:39;15.70;99.90
21590;DHT22;10957;50.968;6.828;2023-08-08T20:26:40;15.70;99.90
21590;DHT22;10957;50.968;6.828;2023-08-08T20:31:42;15.70;99.90
21590;DHT22;10957;50.968;6.828;2023-08-08T20:36:44;15.70;1.00
21590;DHT22;10957;50.968;6.828;2023-08-08T20:41:45;15.60;1.00
21590;DHT22;10957;50.968;6.828;2023-08-08T20:46:47;15.60;1.00
21590;DHT22;10957;50.968;6.828;2023-08-08T20:51:48;15.60;1.00
21590;DHT22;10957;50.968;6.828;2023-08-08T20:56:55;15.60;1.00
21590;DHT22;10957;50.968;6.828;2023-08-08T21:01:57;15.60;1.00
21590;DHT22;10957;50.968;6.828;2023-08-08T21:06:59;15.70;1.00
21590;DHT22;10957;50.968;6.828;2023-08-08T21:12:01;15.50;1.00
21590;DHT22;10957;50.968;6.828;2023-08-08T21:17:02;15.50;60.60
21590;DHT22;10957;50.968;6.828;2023-08-08T21:22:04;15.50;99.90
21590;DHT22;10957;50.968;6.828;2023-08-08T21:27:05;15.60;99.90
21590;DHT22;10957;50.968;6.828;2023-08-08T21:32:06;15.60;99.90
21590;DHT22;10957;50.968;6.828;2023-08-08T21:37:07;15.70;99.90
21590;DHT22;10957;50.968;6.828;2023-08-08T21:42:09;15.70;99.90
21590;DHT22;10957;50.968;6.828;2023-08-08T21:47:10;15.70;99.90
21590;DHT22;10957;50.968;6.828;2023-08-08T21:52:11;15.70;99.90
21590;DHT22;10957;50.968;6.828;2023-08-08T21:57:13;15.80;99.90
21590;DHT22;10957;50.968;6.828;2023-08-08T22:02:14;15.70;99.90
21590;DHT22;10957;50.968;6.828;2023-08-08T22:07:15;15.70;99.90
21590;DHT22;10957;50.968;6.828;2023-08-08T22:12:16;15.80;99.90
21590;DHT22;10957;50.968;6.828;2023-08-08T22:17:18;15.80;99.90
21590;DHT22;10957;50.968;6.828;2023-08-08T22:22:19;15.80;99.90
21590;DHT22;10957;50.968;6.828;2023-08-08T22:27:20;15.80;99.90
21590;DHT22;10957;50.968;6.828;2023-08-08T22:32:22;15.90;99.90
21590;DHT22;10957;50.968;6.828;2023-08-08T22:37:23;15.60;99.90
21590;DHT22;10957;50.968;6.828;2023-08-08T22:42:24;15.90;99.90
21590;DHT22;10957;50.968;6.828;2023-08-08T22:47:25;15.50;99.90
21590;DHT22;10957;50.968;6.828;2023-08-08T22:52:27;16.00;99.90
21590;DHT22;10957;50.968;6.828;2023-08-08T22:57:28;15.90;99.90
21590;DHT22;10957;50.968;6.828;2023-08-08T23:02:30;16.00;99.90
21590;DHT22;10957;50.968;6.828;2023-08-08T23:07:31;16.10;99.90
21590;DHT22;10957;50.968;6.828;2023-08-08T23:12:32;16.00;99.90
21590;DHT22;10957;50.968;6.828;2023-08-08T23:17:33;15.90;99.90
21590;DHT22;10957;50.968;6.828;2023-08-08T23:22:35;16.10;99.90
21590;DHT22;10957;50.968;6.828;2023-08-08T23:27:36;16.00;99.90
21590;DHT22;10957;50.968;6.828;2023-08-08T23:32:40;15.80;99.90
21590;DHT22;10957;50.968;6.828;2023-08-08T23:37:41;16.10;99.90
21590;DHT22;10957;50.968;6.828;2023-08-08T23:42:43;16.10;99.90
21590;DHT22;10957;50.968;6.828;2023-08-08T23:47:44;16.00;99.90
21590;DHT22;10957;50.968;6.828;2023-08-08T23:52:46;16.10;99.90
21590;DHT22;10957;50.968;6.828;2023-08-08T23:57:47;16.10;99.90
